createdAt,value
2022-12-16T00:00:33.742Z,25.57
2022-12-16T00:03:02.306Z,25.38
2022-12-16T00:05:30.085Z,25.48
2022-12-16T00:07:57.840Z,25.67
2022-12-16T00:10:25.620Z,25.96
2022-12-16T00:12:53.640Z,25.63
2022-12-16T00:15:22.942Z,25.55
2022-12-16T00:17:50.755Z,25.84
2022-12-16T00:20:19.551Z,25.94
2022-12-16T00:22:47.305Z,26.01
2022-12-16T00:25:15.080Z,26.13
2022-12-16T00:27:42.934Z,26.35
2022-12-16T00:30:10.688Z,26.15
2022-12-16T00:32:38.413Z,25.95
2022-12-16T00:35:06.392Z,26.03
2022-12-16T00:37:34.200Z,26.45
2022-12-16T00:40:01.959Z,26.28
2022-12-16T00:42:30.566Z,25.96
2022-12-16T00:44:58.436Z,25.72
2022-12-16T00:47:26.430Z,26.18
2022-12-16T00:49:54.212Z,26.02
2022-12-16T00:52:22.762Z,25.82
2022-12-16T00:54:50.578Z,25.62
2022-12-16T00:57:19.668Z,26.17
2022-12-16T00:59:47.428Z,25.75
2022-12-16T01:02:15.374Z,25.85
2022-12-16T01:04:43.226Z,25.81
2022-12-16T01:07:10.958Z,25.84
2022-12-16T01:09:38.668Z,25.53
2022-12-16T01:12:06.500Z,25.73
2022-12-16T01:14:34.283Z,26.00
2022-12-16T01:17:02.276Z,25.92
2022-12-16T01:19:30.092Z,25.96
2022-12-16T01:21:57.845Z,26.01
2022-12-16T01:24:25.710Z,25.44
2022-12-16T01:26:53.462Z,25.39
2022-12-16T01:29:21.394Z,25.80
2022-12-16T01:31:49.250Z,25.87
2022-12-16T01:34:17.374Z,25.62
2022-12-16T01:36:45.204Z,25.49
2022-12-16T01:39:13.153Z,26.02
2022-12-16T01:41:40.870Z,26.10
2022-12-16T01:44:08.599Z,26.20
2022-12-16T01:46:38.557Z,26.13
2022-12-16T01:49:06.342Z,25.88
2022-12-16T01:51:34.148Z,26.46
2022-12-16T01:54:01.946Z,26.00
2022-12-16T01:56:29.822Z,26.19
2022-12-16T02:05:23.198Z,25.78
2022-12-16T02:07:51.283Z,26.07
2022-12-16T02:10:19.298Z,25.83
2022-12-16T02:12:47.215Z,25.56
2022-12-16T02:15:15.124Z,25.49
2022-12-16T02:17:42.986Z,25.65
2022-12-16T02:20:10.798Z,26.04
2022-12-16T02:22:38.829Z,26.08
2022-12-16T02:25:06.817Z,25.77
2022-12-16T02:27:34.631Z,25.96
2022-12-16T02:30:02.499Z,26.00
2022-12-16T02:32:30.270Z,25.91
2022-12-16T02:34:58.124Z,25.76
2022-12-16T02:37:26.001Z,26.01
2022-12-16T02:39:53.776Z,26.00
2022-12-16T02:42:21.791Z,25.74
2022-12-16T02:44:49.734Z,25.74
2022-12-16T02:47:18.545Z,26.35
2022-12-16T02:49:46.653Z,26.48
2022-12-16T02:52:14.508Z,25.91
2022-12-16T02:54:42.449Z,25.84
2022-12-16T02:57:10.419Z,26.25
2022-12-16T02:59:38.358Z,26.09
2022-12-16T03:02:06.295Z,26.32
2022-12-16T03:04:34.507Z,26.04
2022-12-16T03:07:02.405Z,26.45
2022-12-16T03:09:30.294Z,26.02
2022-12-16T03:11:58.088Z,26.22
2022-12-16T03:14:26.007Z,25.70
2022-12-16T03:16:53.947Z,26.29
2022-12-16T03:19:21.899Z,25.66
2022-12-16T03:21:49.868Z,25.89
2022-12-16T03:24:17.729Z,26.03
2022-12-16T03:26:45.624Z,25.78
2022-12-16T03:29:13.457Z,26.15
2022-12-16T03:31:41.452Z,26.08
2022-12-16T03:34:10.783Z,26.36
2022-12-16T03:36:38.563Z,25.92
2022-12-16T03:39:06.469Z,25.92
2022-12-16T03:41:34.364Z,25.78
2022-12-16T03:44:02.183Z,26.08
2022-12-16T03:46:30.599Z,26.14
2022-12-16T03:48:58.698Z,25.61
2022-12-16T03:51:26.524Z,26.09
2022-12-16T03:53:54.354Z,26.18
2022-12-16T03:56:22.316Z,26.08
2022-12-16T03:58:50.082Z,25.77
2022-12-16T04:01:18.214Z,26.00
2022-12-16T04:03:46.195Z,26.34
2022-12-16T04:06:18.655Z,25.91
2022-12-16T04:08:46.827Z,26.19
2022-12-16T04:11:32.323Z,25.94
2022-12-16T04:14:17.465Z,26.56
2022-12-16T04:17:02.804Z,26.43
2022-12-16T04:19:47.952Z,26.80
2022-12-16T04:22:33.133Z,26.53
2022-12-16T04:25:00.965Z,26.34
2022-12-16T04:27:29.458Z,27.05
2022-12-16T04:30:14.869Z,26.85
2022-12-16T04:33:00.201Z,26.63
2022-12-16T04:35:45.438Z,26.82
2022-12-16T04:38:30.661Z,26.85
2022-12-16T04:41:16.366Z,26.68
2022-12-16T04:44:01.725Z,26.49
2022-12-16T04:46:47.213Z,26.81
2022-12-16T04:49:32.655Z,26.68
2022-12-16T04:52:17.905Z,26.39
2022-12-16T04:55:02.966Z,26.89
2022-12-16T04:57:48.258Z,26.77
2022-12-16T05:00:33.672Z,26.79
2022-12-16T05:03:27.551Z,26.77
2022-12-16T05:06:12.788Z,26.56
2022-12-16T05:08:58.285Z,26.84
2022-12-16T05:11:43.506Z,26.43
2022-12-16T05:14:28.596Z,27.00
2022-12-16T05:19:52.949Z,27.06
2022-12-16T05:22:43.687Z,27.22
2022-12-16T05:25:28.740Z,27.01
2022-12-16T05:28:14.175Z,27.31
2022-12-16T05:30:59.377Z,27.25
2022-12-16T05:33:44.402Z,27.45
2022-12-16T05:36:29.687Z,27.34
2022-12-16T05:39:14.738Z,27.34
2022-12-16T05:41:59.937Z,27.33
2022-12-16T05:44:45.190Z,27.28
2022-12-16T05:47:30.384Z,27.58
2022-12-16T05:50:16.081Z,27.08
2022-12-16T05:53:01.393Z,27.54
2022-12-16T05:55:46.628Z,27.69
2022-12-16T05:58:31.639Z,27.17
2022-12-16T06:01:16.934Z,27.16
2022-12-16T06:04:02.061Z,27.33
2022-12-16T06:06:47.633Z,27.69
2022-12-16T06:09:32.772Z,27.62
2022-12-16T06:12:29.426Z,27.35
2022-12-16T06:15:14.599Z,27.84
2022-12-16T06:17:59.819Z,27.58
2022-12-16T06:20:45.007Z,27.29
2022-12-16T06:23:30.092Z,27.64
2022-12-16T06:26:15.304Z,26.88
2022-12-16T06:29:00.334Z,27.30
2022-12-16T06:31:45.588Z,26.98
2022-12-16T06:34:31.021Z,27.19
2022-12-16T06:37:16.057Z,27.22
2022-12-16T06:40:01.409Z,27.27
2022-12-16T06:42:46.524Z,27.02
2022-12-16T06:45:34.911Z,26.77
2022-12-16T06:48:20.749Z,26.70
2022-12-16T06:51:05.717Z,26.70
2022-12-16T06:53:47.245Z,27.28
2022-12-16T06:56:32.286Z,27.14
2022-12-16T06:59:17.539Z,26.94
2022-12-16T07:02:02.706Z,26.71
2022-12-16T07:04:48.857Z,26.74
2022-12-16T07:07:34.330Z,27.46
2022-12-16T07:10:30.869Z,27.13
2022-12-16T07:13:15.933Z,27.30
2022-12-16T07:16:05.392Z,27.39
2022-12-16T07:18:50.724Z,27.53
2022-12-16T07:21:35.940Z,26.92
2022-12-16T07:24:21.202Z,27.09
2022-12-16T07:27:06.388Z,27.05
2022-12-16T07:29:51.443Z,26.96
2022-12-16T07:32:38.143Z,26.80
2022-12-16T07:35:23.455Z,27.04
2022-12-16T07:38:08.937Z,26.86
2022-12-16T07:40:53.988Z,26.77
2022-12-16T07:43:39.214Z,27.08
2022-12-16T07:46:24.485Z,26.49
2022-12-16T07:49:09.568Z,27.01
2022-12-16T07:51:54.764Z,26.69
2022-12-16T07:54:40.961Z,26.91
2022-12-16T07:57:26.117Z,26.79
2022-12-16T08:00:11.208Z,26.66
2022-12-16T08:02:56.423Z,26.71
2022-12-16T08:05:42.002Z,26.81
2022-12-16T08:08:27.155Z,27.06
2022-12-16T08:11:12.328Z,26.65
2022-12-16T08:13:57.404Z,27.13
2022-12-16T08:16:42.654Z,26.79
2022-12-16T08:19:28.120Z,27.31
2022-12-16T08:22:13.305Z,26.83
2022-12-16T08:25:03.961Z,26.54
2022-12-16T08:27:49.122Z,26.43
2022-12-16T08:30:34.311Z,26.06
2022-12-16T08:33:20.055Z,26.84
2022-12-16T08:36:05.175Z,26.83
2022-12-16T08:38:50.322Z,26.53
2022-12-16T08:41:36.522Z,26.78
2022-12-16T08:44:21.788Z,26.90
2022-12-16T08:47:07.103Z,27.61
2022-12-16T08:49:54.788Z,27.37
2022-12-16T08:52:42.793Z,27.50
2022-12-16T08:55:29.876Z,27.46
2022-12-16T08:58:15.408Z,28.01
2022-12-16T09:01:06.271Z,27.83
2022-12-16T09:03:52.486Z,28.07
2022-12-16T09:06:40.616Z,27.81
2022-12-16T09:09:28.961Z,27.86
2022-12-16T09:12:14.016Z,27.80
2022-12-16T09:14:59.242Z,27.57
2022-12-16T09:17:44.425Z,27.59
2022-12-16T09:20:29.614Z,27.42
2022-12-16T09:23:14.956Z,27.81
2022-12-16T09:26:00.099Z,27.59
2022-12-16T09:28:45.710Z,27.31
2022-12-16T09:31:30.911Z,27.70
2022-12-16T09:34:16.412Z,27.45
2022-12-16T09:37:01.413Z,27.50
2022-12-16T09:39:46.719Z,27.45
2022-12-16T09:42:32.124Z,27.75
2022-12-16T09:45:17.339Z,27.49
2022-12-16T09:48:02.535Z,25.61
2022-12-16T09:50:47.748Z,23.67
2022-12-16T09:53:33.338Z,23.24
2022-12-16T09:56:30.771Z,23.22
2022-12-16T09:59:15.881Z,22.60
2022-12-16T10:02:01.076Z,22.75
2022-12-16T10:04:46.242Z,22.77
2022-12-16T10:07:31.404Z,23.12
2022-12-16T10:10:16.487Z,23.65
2022-12-16T10:13:01.753Z,23.66
2022-12-16T10:15:46.819Z,23.63
2022-12-16T10:18:32.455Z,24.27
2022-12-16T10:21:17.705Z,24.61
2022-12-16T10:24:03.041Z,24.93
2022-12-16T10:26:48.607Z,24.77
2022-12-16T10:29:33.665Z,25.10
2022-12-16T10:32:18.805Z,25.49
2022-12-16T10:35:03.815Z,25.48
2022-12-16T10:37:49.232Z,25.67
2022-12-16T10:40:34.362Z,25.56
2022-12-16T10:43:22.409Z,25.80
2022-12-16T10:46:07.950Z,26.01
2022-12-16T10:48:56.863Z,26.31
2022-12-16T10:51:42.449Z,26.57
2022-12-16T10:54:24.013Z,25.81
2022-12-16T10:57:09.125Z,25.68
2022-12-16T10:59:54.209Z,26.04
2022-12-16T11:02:39.878Z,26.32
2022-12-16T11:05:25.317Z,25.80
2022-12-16T11:08:10.454Z,26.35
2022-12-16T11:10:56.157Z,26.19
2022-12-16T11:13:41.871Z,26.00
2022-12-16T11:16:27.040Z,25.97
2022-12-16T11:19:12.672Z,26.45
2022-12-16T11:21:58.088Z,26.42
2022-12-16T11:24:43.435Z,26.12
2022-12-16T11:27:29.068Z,26.09
2022-12-16T11:30:14.301Z,26.33
2022-12-16T11:32:59.605Z,26.20
2022-12-16T11:35:45.070Z,26.50
2022-12-16T11:38:30.296Z,26.12
2022-12-16T11:41:15.362Z,26.57
2022-12-16T11:44:00.536Z,26.52
2022-12-16T11:46:45.982Z,26.20
2022-12-16T11:49:31.355Z,26.48
2022-12-16T11:55:35.742Z,26.25
2022-12-16T11:58:27.226Z,26.26
2022-12-16T12:01:23.880Z,26.26
2022-12-16T12:04:09.214Z,26.45
2022-12-16T12:06:54.418Z,26.62
2022-12-16T12:09:39.967Z,26.21
2022-12-16T12:12:25.323Z,26.42
2022-12-16T12:15:10.579Z,26.85
2022-12-16T12:17:55.729Z,26.39
2022-12-16T12:20:41.154Z,26.66
2022-12-16T12:23:26.318Z,27.18
2022-12-16T12:26:11.512Z,26.90
2022-12-16T12:28:56.813Z,26.82
2022-12-16T12:31:42.060Z,26.53
2022-12-16T12:34:27.698Z,26.95
2022-12-16T12:37:12.939Z,27.25
2022-12-16T12:39:58.179Z,27.01
2022-12-16T12:42:48.893Z,26.52
2022-12-16T12:45:46.002Z,26.56
2022-12-16T12:48:31.154Z,27.01
2022-12-16T12:51:16.254Z,27.04
2022-12-16T12:54:01.649Z,27.26
2022-12-16T12:56:46.789Z,27.06
2022-12-16T12:59:31.958Z,26.66
2022-12-16T13:02:17.303Z,26.99
2022-12-16T13:05:02.856Z,27.04
2022-12-16T13:07:48.042Z,26.65
2022-12-16T13:10:33.217Z,26.85
2022-12-16T13:13:18.670Z,27.14
2022-12-16T13:16:03.958Z,27.31
2022-12-16T13:18:49.280Z,26.75
2022-12-16T13:21:34.344Z,26.86
2022-12-16T13:24:27.918Z,27.01
2022-12-16T13:27:13.095Z,27.30
2022-12-16T13:29:58.393Z,27.01
2022-12-16T13:32:43.375Z,26.68
2022-12-16T13:35:33.823Z,27.14
2022-12-16T13:38:19.182Z,26.97
2022-12-16T13:41:04.466Z,26.66
2022-12-16T13:43:49.791Z,26.86
2022-12-16T13:46:35.127Z,27.43
2022-12-16T13:49:23.393Z,26.87
2022-12-16T13:52:08.936Z,27.23
2022-12-16T13:54:54.482Z,27.10
2022-12-16T13:57:39.657Z,26.83
2022-12-16T14:00:24.768Z,27.50
2022-12-16T14:03:10.274Z,27.76
2022-12-16T14:05:55.659Z,27.75
2022-12-16T14:08:41.110Z,27.39
2022-12-16T14:11:26.182Z,27.96
2022-12-16T14:14:11.218Z,27.52
2022-12-16T14:16:56.615Z,27.60
2022-12-16T14:19:38.312Z,27.55
2022-12-16T14:22:23.507Z,28.12
2022-12-16T14:25:08.766Z,27.72
2022-12-16T14:27:54.083Z,28.12
2022-12-16T14:30:39.701Z,28.28
2022-12-16T14:33:24.925Z,27.88
2022-12-16T14:36:09.983Z,28.27
2022-12-16T14:38:55.235Z,27.84
2022-12-16T14:41:40.467Z,27.57
2022-12-16T14:44:25.891Z,27.77
2022-12-16T14:47:11.251Z,23.21
2022-12-16T14:49:56.391Z,13.29
2022-12-16T14:52:47.086Z,8.69
2022-12-16T14:55:32.410Z,6.28
2022-12-16T14:58:26.006Z,5.92
2022-12-16T15:01:15.786Z,4.91
2022-12-16T15:04:01.566Z,4.70
2022-12-16T15:06:47.217Z,4.43
2022-12-16T15:09:32.631Z,4.26
2022-12-16T15:12:17.742Z,4.33
2022-12-16T15:15:03.145Z,4.20
2022-12-16T15:17:48.165Z,4.34
2022-12-16T15:20:33.965Z,4.08
2022-12-16T15:23:19.051Z,4.35
2022-12-16T15:26:04.409Z,4.10
2022-12-16T15:28:49.689Z,3.86
2022-12-16T15:31:34.821Z,3.81
2022-12-16T15:34:35.046Z,4.60
2022-12-16T15:37:20.168Z,5.00
2022-12-16T15:40:04.865Z,6.03
2022-12-16T15:42:49.894Z,7.24
2022-12-16T15:45:35.036Z,7.67
2022-12-16T15:48:20.212Z,8.31
2022-12-16T15:51:05.622Z,9.85
2022-12-16T15:53:50.933Z,10.50
2022-12-16T15:56:36.499Z,11.30
2022-12-16T15:59:22.018Z,12.30
2022-12-16T16:02:07.152Z,12.96
2022-12-16T16:04:52.523Z,13.91
2022-12-16T16:07:46.192Z,14.29
2022-12-16T16:10:31.550Z,14.54
2022-12-16T16:13:13.093Z,15.10
2022-12-16T16:15:58.397Z,15.51
2022-12-16T16:18:43.805Z,13.86
2022-12-16T16:21:29.096Z,12.86
2022-12-16T16:24:10.659Z,11.79
2022-12-16T16:26:55.945Z,10.88
2022-12-16T16:29:41.249Z,9.34
2022-12-16T16:32:26.510Z,9.23
2022-12-16T16:35:11.791Z,8.03
2022-12-16T16:37:56.904Z,7.62
2022-12-16T16:40:42.184Z,7.52
2022-12-16T16:43:27.266Z,7.03
2022-12-16T16:46:12.621Z,7.37
2022-12-16T16:48:58.247Z,7.67
2022-12-16T16:51:43.826Z,8.46
2022-12-16T16:54:28.986Z,9.48
2022-12-16T16:57:19.581Z,9.94
2022-12-16T17:00:04.909Z,10.90
2022-12-16T17:02:50.284Z,11.43
2022-12-16T17:05:35.741Z,12.79
2022-12-16T17:08:35.651Z,13.32
2022-12-16T17:11:20.824Z,14.09
2022-12-16T17:14:05.971Z,14.29
2022-12-16T17:16:51.027Z,12.64
2022-12-16T17:19:37.743Z,10.57
2022-12-16T17:22:22.891Z,8.95
2022-12-16T17:25:08.265Z,7.74
2022-12-16T17:27:53.429Z,7.30
2022-12-16T17:30:42.029Z,7.05
2022-12-16T17:33:32.503Z,7.66
2022-12-16T17:36:18.270Z,8.09
2022-12-16T17:39:03.534Z,8.98
2022-12-16T17:41:48.912Z,10.06
2022-12-16T17:44:34.288Z,10.53
2022-12-16T17:47:19.731Z,11.64
2022-12-16T17:50:05.593Z,12.26
2022-12-16T17:52:51.049Z,13.31
2022-12-16T17:55:36.167Z,13.74
2022-12-16T17:58:21.755Z,14.81
2022-12-16T18:01:07.224Z,15.19
2022-12-16T18:03:52.596Z,16.04
2022-12-16T18:06:38.750Z,13.94
2022-12-16T18:09:38.723Z,11.84
2022-12-16T18:12:24.102Z,10.17
2022-12-16T18:15:09.150Z,9.91
2022-12-16T18:17:54.602Z,9.62
2022-12-16T18:20:40.140Z,8.32
2022-12-16T18:23:25.684Z,7.40
2022-12-16T18:26:10.887Z,7.16
2022-12-16T18:28:56.323Z,6.97
2022-12-16T18:31:41.987Z,7.18
2022-12-16T18:34:27.358Z,7.92
2022-12-16T18:37:12.836Z,8.50
2022-12-16T18:39:58.307Z,9.12
2022-12-16T18:42:43.513Z,9.79
2022-12-16T18:45:29.039Z,10.50
2022-12-16T18:48:14.298Z,11.73
2022-12-16T18:50:59.409Z,12.30
2022-12-16T18:53:56.410Z,12.81
2022-12-16T18:56:41.706Z,14.17
2022-12-16T18:59:23.261Z,14.52
2022-12-16T19:02:08.744Z,15.26
2022-12-16T19:04:54.190Z,16.08
2022-12-16T19:07:39.620Z,15.75
2022-12-16T19:10:24.791Z,14.88
2022-12-16T19:13:10.300Z,13.22
2022-12-16T19:15:56.012Z,12.17
2022-12-16T19:18:41.506Z,11.49
2022-12-16T19:21:38.379Z,10.85
2022-12-16T19:24:23.635Z,10.15
2022-12-16T19:27:14.994Z,9.73
2022-12-16T19:30:01.152Z,10.28
2022-12-16T19:32:46.626Z,10.80
2022-12-16T19:35:32.111Z,11.03
2022-12-16T19:38:17.704Z,11.80
2022-12-16T19:41:03.084Z,12.62
2022-12-16T19:43:48.859Z,13.53
2022-12-16T19:46:34.246Z,14.37
2022-12-16T19:49:19.761Z,15.00
2022-12-16T19:52:05.178Z,15.32
2022-12-16T19:54:50.399Z,16.52
2022-12-16T19:57:35.999Z,17.10
2022-12-16T20:00:21.148Z,17.44
2022-12-16T20:03:06.938Z,17.99
2022-12-16T20:05:52.125Z,18.07
2022-12-16T20:08:41.529Z,18.44
2022-12-16T20:11:27.119Z,18.84
2022-12-16T20:14:12.262Z,19.23
2022-12-16T20:16:57.749Z,19.68
2022-12-16T20:19:43.215Z,19.78
2022-12-16T20:22:24.849Z,20.60
2022-12-16T20:25:09.927Z,21.01
2022-12-16T20:27:55.080Z,21.14
2022-12-16T20:30:42.102Z,21.13
2022-12-16T20:33:27.487Z,21.82
2022-12-16T20:36:12.750Z,21.52
2022-12-16T20:38:58.081Z,21.96
2022-12-16T20:41:43.459Z,22.34
2022-12-16T20:44:28.549Z,22.00
2022-12-16T20:47:13.893Z,21.95
2022-12-16T20:49:58.989Z,22.45
2022-12-16T20:52:44.075Z,22.44
2022-12-16T20:55:29.533Z,22.61
2022-12-16T20:58:14.759Z,22.63
2022-12-16T21:01:00.284Z,22.64
2022-12-16T21:03:45.808Z,22.99
2022-12-16T21:06:31.318Z,22.82
2022-12-16T21:09:16.665Z,23.09
2022-12-16T21:12:01.805Z,23.23
2022-12-16T21:14:47.023Z,23.30
2022-12-16T21:17:32.409Z,23.43
2022-12-16T21:20:17.560Z,23.49
2022-12-16T21:23:02.947Z,23.81
2022-12-16T21:25:48.307Z,23.79
2022-12-16T21:28:29.865Z,23.71
2022-12-16T21:31:15.170Z,24.26
2022-12-16T21:34:00.388Z,24.11
2022-12-16T21:36:45.868Z,24.32
2022-12-16T21:39:30.984Z,24.02
2022-12-16T21:42:16.420Z,24.10
2022-12-16T21:45:01.938Z,24.50
2022-12-16T21:47:47.164Z,24.52
2022-12-16T21:50:32.425Z,24.63
2022-12-16T21:53:17.835Z,24.73
2022-12-16T21:56:03.332Z,24.66
2022-12-16T21:58:48.553Z,24.82
2022-12-16T22:01:34.293Z,24.32
2022-12-16T22:04:19.595Z,24.59
2022-12-16T22:07:05.027Z,25.24
2022-12-16T22:09:50.379Z,25.03
2022-12-16T22:12:35.468Z,25.28
2022-12-16T22:15:20.974Z,25.63
2022-12-16T22:18:06.253Z,25.80
2022-12-16T22:20:51.830Z,25.82
2022-12-16T22:23:37.326Z,26.00
2022-12-16T22:26:22.846Z,25.93
2022-12-16T22:29:08.381Z,26.18
2022-12-16T22:31:55.085Z,26.14
2022-12-16T22:34:41.692Z,26.16
2022-12-16T22:37:26.933Z,26.03
2022-12-16T22:40:12.164Z,26.51
2022-12-16T22:42:57.868Z,26.68
2022-12-16T22:45:43.195Z,26.44
2022-12-16T22:48:28.289Z,26.50
2022-12-16T22:51:13.325Z,26.45
2022-12-16T22:53:58.934Z,26.54
2022-12-16T22:56:44.388Z,26.41
2022-12-16T22:59:29.606Z,26.25
2022-12-16T23:02:15.294Z,26.54
2022-12-16T23:05:12.240Z,26.19
2022-12-16T23:07:57.278Z,26.39
2022-12-16T23:10:42.572Z,26.37
2022-12-16T23:13:27.963Z,26.05
2022-12-16T23:16:15.458Z,26.60
2022-12-16T23:19:15.322Z,26.55
2022-12-16T23:22:00.491Z,26.52
2022-12-16T23:24:53.978Z,26.20
2022-12-16T23:27:39.126Z,26.28
2022-12-16T23:30:20.695Z,26.49
2022-12-16T23:33:05.976Z,26.04
2022-12-16T23:35:51.159Z,26.36
2022-12-16T23:38:37.482Z,26.63
2022-12-16T23:41:22.951Z,26.29
2022-12-16T23:44:08.134Z,26.38
2022-12-16T23:46:53.546Z,26.66
2022-12-16T23:49:38.915Z,26.65
2022-12-16T23:52:23.960Z,26.51
2022-12-16T23:55:09.210Z,26.31
2022-12-16T23:57:56.089Z,26.59
